KCLW/CLW METAR and TAF weather

Enter ICAO airport designator
Station Type Date Time Source
KCLW METAR 2020/11/25 22:55 UTC NOAA

KCLW 252255Z AUTO 00000KT 10SM 25/18 A3015 RMK AO2


Station Type Date Time Source
KCLW Decoded METAR 2020/11/25 22:55 UTC NOAA

Station name not available
Nov 25, 2020 - 05:55 PM EST / 2020.11.25 2255 UTC
Wind: Calm:0
Visibility: 10 mile(s):0
Temperature: 77 F (25 C)
Dew Point: 64 F (18 C)
Relative Humidity: 65%
Pressure (altimeter): 30.15 in. Hg (1020 hPa)
ob: KCLW 252255Z AUTO 00000KT 10SM 25/18 A3015 RMK AO2
cycle: 23

Station Type Date Time Source
KCLW TAF UTC NOAA

Error!

Example: see airport list